BVX624E EGNX-EDDM
Flight info
| Callsign | BVX624E |
|---|---|
| Flight time | 1h 30m |
| Altitude | 37000 |
| Route | SAPCO Y53 DTY P166 BANTO P155 SIVDA P137 REDFA DCT TACHA DCT DODEN/N0482F330 DCT TABUM DCT BOMBI T104 HAREM/N0476F270 T104 ROKIL ROKIL1B |
| Aircraft | B77L/H-SDE1E2E3FGHIJ2J3J4J5M1RWXY/LB1D1 |
Departure
| Time | 2026-05-05 09:25 |
|---|---|
| Airport | East Midlands Airport (EGNX) |
Arrival
| Time | 2026-05-05 10:55 |
|---|---|
| Airport | Munich Airport (EDDM) |
| Time | Latitude | Longitude | Altitude | Speed | Heading |
|---|---|---|---|---|---|
| 2026-05-05 08:54 | 52.82810 | -1.32140 | 305 ft | 0 kts | 178° |
| 2026-05-05 09:14 | 52.82829 | -1.32140 | 305 ft | 4 kts | 187° |
| 2026-05-05 09:14 | 52.82854 | -1.32130 | 304 ft | 4 kts | 212° |
| 2026-05-05 09:14 | 52.82869 | -1.32103 | 303 ft | 4 kts | 275° |
| 2026-05-05 09:14 | 52.82868 | -1.32092 | 304 ft | 2 kts | 292° |
| 2026-05-05 09:18 | 52.82872 | -1.32105 | 303 ft | 4 kts | 292° |
| 2026-05-05 09:18 | 52.82885 | -1.32146 | 307 ft | 4 kts | 307° |
| 2026-05-05 09:19 | 52.82910 | -1.32171 | 309 ft | 4 kts | 342° |
| 2026-05-05 09:19 | 52.82934 | -1.32150 | 307 ft | 5 kts | 62° |
| 2026-05-05 09:19 | 52.82941 | -1.32095 | 305 ft | 5 kts | 82° |
| 2026-05-05 09:19 | 52.82944 | -1.32031 | 305 ft | 6 kts | 86° |
| 2026-05-05 09:20 | 52.82946 | -1.31959 | 307 ft | 7 kts | 89° |
| 2026-05-05 09:20 | 52.82947 | -1.31880 | 309 ft | 7 kts | 88° |
| 2026-05-05 09:20 | 52.82949 | -1.31792 | 308 ft | 8 kts | 88° |
| 2026-05-05 09:20 | 52.82951 | -1.31695 | 305 ft | 9 kts | 88° |
| 2026-05-05 09:21 | 52.82953 | -1.31589 | 309 ft | 10 kts | 88° |
| 2026-05-05 09:21 | 52.82955 | -1.31474 | 307 ft | 10 kts | 88° |
| 2026-05-05 09:21 | 52.82957 | -1.31349 | 308 ft | 11 kts | 88° |
| 2026-05-05 09:21 | 52.82960 | -1.31214 | 308 ft | 12 kts | 88° |
| 2026-05-05 09:22 | 52.82963 | -1.31068 | 308 ft | 13 kts | 88° |
| 2026-05-05 09:22 | 52.82965 | -1.30918 | 308 ft | 13 kts | 88° |
| 2026-05-05 09:22 | 52.82975 | -1.30769 | 307 ft | 13 kts | 68° |
| 2026-05-05 09:22 | 52.83046 | -1.30686 | 309 ft | 13 kts | 9° |
| 2026-05-05 09:23 | 52.83117 | -1.30689 | 308 ft | 8 kts | 345° |
| 2026-05-05 09:23 | 52.83138 | -1.30742 | 306 ft | 6 kts | 277° |
| 2026-05-05 09:23 | 52.83137 | -1.30773 | 306 ft | 1 kts | 268° |
| 2026-05-05 09:23 | 52.83137 | -1.30790 | 306 ft | 5 kts | 268° |
| 2026-05-05 09:24 | 52.83134 | -1.31020 | 309 ft | 38 kts | 269° |
| 2026-05-05 09:24 | 52.83122 | -1.31671 | 313 ft | 76 kts | 268° |
| 2026-05-05 09:24 | 52.83097 | -1.33052 | 311 ft | 164 kts | 269° |
| 2026-05-05 09:24 | 52.83075 | -1.35174 | 904 ft | 189 kts | 268° |
| 2026-05-05 09:25 | 52.83008 | -1.37252 | 2079 ft | 179 kts | 267° |
| 2026-05-05 09:25 | 52.82581 | -1.39184 | 2757 ft | 190 kts | 228° |
| 2026-05-05 09:25 | 52.81535 | -1.40737 | 3044 ft | 215 kts | 223° |
| 2026-05-05 09:25 | 52.80359 | -1.42539 | 3392 ft | 245 kts | 224° |
| 2026-05-05 09:26 | 52.79083 | -1.44539 | 4162 ft | 257 kts | 223° |
| 2026-05-05 09:26 | 52.77791 | -1.46565 | 5112 ft | 262 kts | 223° |
| 2026-05-05 09:26 | 52.76325 | -1.48339 | 5960 ft | 266 kts | 201° |
| 2026-05-05 09:26 | 52.74487 | -1.48751 | 6801 ft | 273 kts | 173° |
| 2026-05-05 09:27 | 52.72663 | -1.47849 | 7632 ft | 277 kts | 157° |
| 2026-05-05 09:27 | 52.70859 | -1.46600 | 8386 ft | 284 kts | 158° |
| 2026-05-05 09:27 | 52.69024 | -1.45351 | 8963 ft | 285 kts | 158° |
| 2026-05-05 09:27 | 52.67167 | -1.44095 | 9019 ft | 292 kts | 159° |
| 2026-05-05 09:28 | 52.65277 | -1.42828 | 9026 ft | 293 kts | 159° |
| 2026-05-05 09:28 | 52.63380 | -1.41613 | 9016 ft | 290 kts | 160° |
| 2026-05-05 09:28 | 52.61505 | -1.40433 | 9014 ft | 287 kts | 160° |
| 2026-05-05 09:28 | 52.59637 | -1.39256 | 9015 ft | 287 kts | 160° |
| 2026-05-05 09:29 | 52.57770 | -1.38080 | 9020 ft | 287 kts | 160° |
| 2026-05-05 09:29 | 52.55903 | -1.36902 | 9018 ft | 288 kts | 160° |
| 2026-05-05 09:29 | 52.54028 | -1.35721 | 9021 ft | 289 kts | 160° |
| 2026-05-05 09:29 | 52.52174 | -1.34493 | 9347 ft | 291 kts | 158° |
| 2026-05-05 09:30 | 52.50284 | -1.33205 | 10213 ft | 297 kts | 158° |
| 2026-05-05 09:30 | 52.48324 | -1.31866 | 10778 ft | 317 kts | 158° |
| 2026-05-05 09:30 | 52.46191 | -1.30415 | 11008 ft | 347 kts | 158° |
| 2026-05-05 09:30 | 52.43861 | -1.28832 | 11299 ft | 375 kts | 159° |
| 2026-05-05 09:31 | 52.41419 | -1.27174 | 12144 ft | 385 kts | 158° |
| 2026-05-05 09:31 | 52.38928 | -1.25485 | 13204 ft | 391 kts | 159° |
| 2026-05-05 09:31 | 52.36392 | -1.23768 | 14180 ft | 397 kts | 159° |
| 2026-05-05 09:31 | 52.33828 | -1.22037 | 15262 ft | 398 kts | 159° |
| 2026-05-05 09:32 | 52.31260 | -1.20303 | 16340 ft | 401 kts | 159° |
| 2026-05-05 09:32 | 52.28671 | -1.18562 | 17360 ft | 404 kts | 159° |
| 2026-05-05 09:32 | 52.26062 | -1.16800 | 18369 ft | 404 kts | 157° |
| 2026-05-05 09:32 | 52.23661 | -1.14433 | 19014 ft | 412 kts | 139° |
| 2026-05-05 09:33 | 52.21893 | -1.10754 | 19734 ft | 422 kts | 119° |
| 2026-05-05 09:33 | 52.20918 | -1.06218 | 20542 ft | 429 kts | 101° |
| 2026-05-05 09:33 | 52.20798 | -1.01329 | 21344 ft | 436 kts | 85° |
| 2026-05-05 09:33 | 52.21580 | -0.96583 | 22065 ft | 444 kts | 68° |
| 2026-05-05 09:34 | 52.22896 | -0.91920 | 22783 ft | 451 kts | 66° |
| 2026-05-05 09:34 | 52.24187 | -0.87203 | 23484 ft | 457 kts | 68° |
| 2026-05-05 09:34 | 52.25296 | -0.82376 | 24086 ft | 462 kts | 74° |
| 2026-05-05 09:34 | 52.26203 | -0.77333 | 24698 ft | 466 kts | 76° |
| 2026-05-05 09:35 | 52.27099 | -0.72214 | 25308 ft | 471 kts | 76° |
| 2026-05-05 09:35 | 52.28937 | -0.61804 | 26471 ft | 482 kts | 75° |
| 2026-05-05 09:35 | 52.29882 | -0.56525 | 27047 ft | 486 kts | 75° |
| 2026-05-05 09:36 | 52.30839 | -0.51193 | 27622 ft | 491 kts | 75° |
| 2026-05-05 09:36 | 52.31803 | -0.45818 | 28185 ft | 495 kts | 75° |
| 2026-05-05 09:36 | 52.32775 | -0.40381 | 28704 ft | 500 kts | 75° |
| 2026-05-05 09:36 | 52.33749 | -0.34908 | 29216 ft | 504 kts | 75° |
| 2026-05-05 09:37 | 52.34712 | -0.29365 | 29700 ft | 508 kts | 77° |
| 2026-05-05 09:37 | 52.35402 | -0.23796 | 30132 ft | 509 kts | 83° |
| 2026-05-05 09:37 | 52.35787 | -0.18038 | 30686 ft | 506 kts | 89° |
| 2026-05-05 09:37 | 52.35805 | -0.12329 | 31459 ft | 498 kts | 94° |
| 2026-05-05 09:38 | 52.35697 | -0.06711 | 32305 ft | 490 kts | 93° |
| 2026-05-05 09:38 | 52.35626 | -0.01163 | 33075 ft | 485 kts | 92° |
| 2026-05-05 09:38 | 52.35513 | 0.04333 | 33613 ft | 484 kts | 96° |
| 2026-05-05 09:38 | 52.35108 | 0.09805 | 34074 ft | 483 kts | 99° |
| 2026-05-05 09:39 | 52.34615 | 0.15232 | 34516 ft | 482 kts | 100° |
| 2026-05-05 09:39 | 52.34104 | 0.20652 | 34914 ft | 482 kts | 100° |
| 2026-05-05 09:39 | 52.33590 | 0.26090 | 35220 ft | 484 kts | 100° |
| 2026-05-05 09:39 | 52.33081 | 0.31547 | 35585 ft | 485 kts | 100° |
| 2026-05-05 09:40 | 52.32580 | 0.36994 | 35972 ft | 484 kts | 99° |
| 2026-05-05 09:40 | 52.32082 | 0.42446 | 36343 ft | 485 kts | 99° |
| 2026-05-05 09:40 | 52.31591 | 0.47846 | 36654 ft | 486 kts | 99° |
| 2026-05-05 09:40 | 52.31092 | 0.53311 | 36948 ft | 488 kts | 99° |
| 2026-05-05 09:41 | 52.30587 | 0.58825 | 37072 ft | 491 kts | 100° |
| 2026-05-05 09:41 | 52.30077 | 0.64364 | 37010 ft | 494 kts | 100° |
| 2026-05-05 09:41 | 52.29052 | 0.75399 | 37012 ft | 488 kts | 100° |
| 2026-05-05 09:42 | 52.28024 | 0.86347 | 37010 ft | 487 kts | 100° |
| 2026-05-05 09:42 | 52.26987 | 0.97258 | 37020 ft | 487 kts | 100° |
| 2026-05-05 09:43 | 52.25938 | 1.08181 | 37007 ft | 488 kts | 100° |
| 2026-05-05 09:43 | 52.24878 | 1.19119 | 37010 ft | 488 kts | 101° |
| 2026-05-05 09:44 | 52.23804 | 1.30087 | 37006 ft | 490 kts | 101° |
| 2026-05-05 09:44 | 52.22725 | 1.40999 | 36994 ft | 491 kts | 101° |
| 2026-05-05 09:45 | 52.21627 | 1.51998 | 36974 ft | 491 kts | 101° |
| 2026-05-05 09:45 | 52.20592 | 1.62274 | 36982 ft | 491 kts | 101° |
| 2026-05-05 09:46 | 52.19519 | 1.72821 | 36986 ft | 491 kts | 101° |
| 2026-05-05 09:46 | 52.18583 | 1.81945 | 36987 ft | 491 kts | 101° |
| 2026-05-05 09:47 | 52.17446 | 1.92927 | 36983 ft | 491 kts | 101° |
| 2026-05-05 09:47 | 52.16301 | 2.03895 | 36975 ft | 491 kts | 101° |
| 2026-05-05 09:48 | 52.15145 | 2.14858 | 36981 ft | 491 kts | 101° |
| 2026-05-05 09:48 | 52.13979 | 2.25820 | 36982 ft | 491 kts | 101° |
| 2026-05-05 09:49 | 52.12804 | 2.36778 | 36979 ft | 491 kts | 102° |
| 2026-05-05 09:49 | 52.12156 | 2.47765 | 36971 ft | 493 kts | 89° |
| 2026-05-05 09:50 | 52.13235 | 2.58802 | 36969 ft | 496 kts | 74° |
| 2026-05-05 09:50 | 52.15333 | 2.69499 | 37003 ft | 497 kts | 72° |
| 2026-05-05 09:51 | 52.17441 | 2.80240 | 36967 ft | 499 kts | 73° |
| 2026-05-05 09:51 | 52.19483 | 2.91052 | 36973 ft | 499 kts | 74° |
| 2026-05-05 09:52 | 52.21498 | 3.01891 | 36969 ft | 500 kts | 73° |
| 2026-05-05 09:52 | 52.23511 | 3.12748 | 36978 ft | 501 kts | 73° |
| 2026-05-05 09:53 | 52.24522 | 3.23850 | 37024 ft | 494 kts | 97° |
| 2026-05-05 09:53 | 52.23903 | 3.29322 | 36991 ft | 491 kts | 109° |
| 2026-05-05 09:53 | 52.22635 | 3.34326 | 36953 ft | 486 kts | 120° |
| 2026-05-05 09:54 | 52.19486 | 3.44052 | 36970 ft | 489 kts | 120° |
| 2026-05-05 09:54 | 52.16357 | 3.53829 | 37003 ft | 492 kts | 119° |
| 2026-05-05 09:55 | 52.13221 | 3.63777 | 36996 ft | 494 kts | 119° |
| 2026-05-05 09:55 | 52.10086 | 3.73762 | 36984 ft | 496 kts | 119° |
| 2026-05-05 09:56 | 52.06944 | 3.83736 | 37071 ft | 495 kts | 119° |
| 2026-05-05 09:56 | 52.03783 | 3.93718 | 37015 ft | 497 kts | 120° |
| 2026-05-05 09:57 | 52.00610 | 4.03690 | 36982 ft | 498 kts | 120° |
| 2026-05-05 09:57 | 51.97422 | 4.13669 | 36972 ft | 497 kts | 120° |
| 2026-05-05 09:58 | 51.94241 | 4.23588 | 37003 ft | 494 kts | 121° |
| 2026-05-05 09:58 | 51.91068 | 4.33438 | 37009 ft | 492 kts | 121° |
| 2026-05-05 09:59 | 51.87914 | 4.43191 | 37016 ft | 491 kts | 121° |
| 2026-05-05 09:59 | 51.84743 | 4.52961 | 36969 ft | 490 kts | 121° |
| 2026-05-05 10:00 | 51.81568 | 4.62702 | 36980 ft | 489 kts | 121° |
| 2026-05-05 10:00 | 51.78381 | 4.72439 | 36960 ft | 489 kts | 121° |
| 2026-05-05 10:01 | 51.75193 | 4.82141 | 36795 ft | 493 kts | 121° |
| 2026-05-05 10:01 | 51.71984 | 4.91879 | 36841 ft | 488 kts | 123° |
| 2026-05-05 10:02 | 51.68818 | 5.01448 | 36933 ft | 485 kts | 123° |
| 2026-05-05 10:02 | 51.65630 | 5.11036 | 37036 ft | 484 kts | 123° |
| 2026-05-05 10:03 | 51.64035 | 5.15819 | 36924 ft | 487 kts | 123° |
| 2026-05-05 10:03 | 51.62430 | 5.20621 | 37022 ft | 485 kts | 123° |
| 2026-05-05 10:03 | 51.59214 | 5.30222 | 37014 ft | 487 kts | 123° |
| 2026-05-05 10:04 | 51.55986 | 5.39823 | 36998 ft | 488 kts | 123° |
| 2026-05-05 10:04 | 51.52748 | 5.49418 | 37035 ft | 488 kts | 123° |
| 2026-05-05 10:05 | 51.49503 | 5.58995 | 37006 ft | 489 kts | 123° |
| 2026-05-05 10:05 | 51.46241 | 5.68586 | 36984 ft | 489 kts | 123° |
| 2026-05-05 10:06 | 51.42994 | 5.78099 | 36952 ft | 490 kts | 124° |
| 2026-05-05 10:06 | 51.39712 | 5.87673 | 36878 ft | 491 kts | 124° |
| 2026-05-05 10:07 | 51.36440 | 5.97195 | 37231 ft | 480 kts | 124° |
| 2026-05-05 10:07 | 51.34822 | 6.01896 | 36846 ft | 489 kts | 124° |
| 2026-05-05 10:07 | 51.33194 | 6.06613 | 37492 ft | 471 kts | 124° |
| 2026-05-05 10:08 | 51.31602 | 6.11216 | 37116 ft | 485 kts | 124° |
| 2026-05-05 10:08 | 51.29947 | 6.15969 | 37112 ft | 488 kts | 124° |
| 2026-05-05 10:08 | 51.28286 | 6.20731 | 36936 ft | 490 kts | 124° |
| 2026-05-05 10:08 | 51.26634 | 6.25473 | 36962 ft | 487 kts | 124° |
| 2026-05-05 10:09 | 51.23346 | 6.34896 | 37007 ft | 485 kts | 124° |
| 2026-05-05 10:09 | 51.20049 | 6.44304 | 36977 ft | 486 kts | 124° |
| 2026-05-05 10:10 | 51.16760 | 6.53649 | 36986 ft | 487 kts | 124° |
| 2026-05-05 10:10 | 51.13434 | 6.63066 | 36961 ft | 487 kts | 124° |
| 2026-05-05 10:11 | 51.10103 | 6.72468 | 36951 ft | 488 kts | 124° |
| 2026-05-05 10:11 | 51.06754 | 6.81883 | 36963 ft | 488 kts | 124° |
| 2026-05-05 10:12 | 51.03399 | 6.91279 | 36945 ft | 489 kts | 124° |
| 2026-05-05 10:12 | 51.00034 | 7.00668 | 36966 ft | 489 kts | 124° |
| 2026-05-05 10:13 | 50.96674 | 7.10011 | 36982 ft | 489 kts | 125° |
| 2026-05-05 10:13 | 50.93298 | 7.19363 | 36979 ft | 489 kts | 125° |
| 2026-05-05 10:14 | 50.89910 | 7.28713 | 36999 ft | 489 kts | 125° |
| 2026-05-05 10:14 | 50.86520 | 7.38037 | 36904 ft | 488 kts | 125° |
| 2026-05-05 10:15 | 50.83118 | 7.47360 | 36903 ft | 488 kts | 125° |
| 2026-05-05 10:15 | 50.79715 | 7.56648 | 36888 ft | 487 kts | 125° |
| 2026-05-05 10:16 | 50.76331 | 7.65852 | 36863 ft | 488 kts | 125° |
| 2026-05-05 10:16 | 50.72917 | 7.75108 | 36893 ft | 488 kts | 125° |
| 2026-05-05 10:17 | 50.69490 | 7.84365 | 36900 ft | 489 kts | 126° |
| 2026-05-05 10:17 | 50.66047 | 7.93636 | 36903 ft | 489 kts | 126° |
| 2026-05-05 10:18 | 50.62590 | 8.02855 | 36902 ft | 487 kts | 128° |
| 2026-05-05 10:18 | 50.58237 | 8.10810 | 36898 ft | 475 kts | 143° |
| 2026-05-05 10:19 | 50.52935 | 8.16799 | 36926 ft | 468 kts | 153° |
| 2026-05-05 10:19 | 50.47429 | 8.22193 | 36911 ft | 469 kts | 153° |
| 2026-05-05 10:20 | 50.41945 | 8.27650 | 36918 ft | 469 kts | 152° |
| 2026-05-05 10:20 | 50.36403 | 8.33208 | 36892 ft | 470 kts | 152° |
| 2026-05-05 10:21 | 50.30951 | 8.38750 | 36904 ft | 473 kts | 148° |
| 2026-05-05 10:21 | 50.25954 | 8.45605 | 36964 ft | 481 kts | 137° |
| 2026-05-05 10:22 | 50.21439 | 8.53377 | 36988 ft | 483 kts | 136° |
| 2026-05-05 10:22 | 50.16908 | 8.61139 | 37004 ft | 484 kts | 137° |
| 2026-05-05 10:23 | 50.12335 | 8.68859 | 37017 ft | 484 kts | 137° |
| 2026-05-05 10:23 | 50.07780 | 8.76510 | 36994 ft | 484 kts | 137° |
| 2026-05-05 10:24 | 50.03055 | 8.83871 | 36991 ft | 480 kts | 142° |
| 2026-05-05 10:24 | 49.98097 | 8.90805 | 36976 ft | 479 kts | 143° |
| 2026-05-05 10:25 | 49.93143 | 8.97717 | 36953 ft | 478 kts | 142° |
| 2026-05-05 10:25 | 49.88221 | 9.04615 | 36935 ft | 478 kts | 142° |
| 2026-05-05 10:26 | 49.83288 | 9.11526 | 37004 ft | 478 kts | 142° |
| 2026-05-05 10:26 | 49.78349 | 9.18426 | 37018 ft | 478 kts | 142° |
| 2026-05-05 10:27 | 49.73407 | 9.25309 | 37025 ft | 478 kts | 142° |
| 2026-05-05 10:27 | 49.68461 | 9.32178 | 37008 ft | 477 kts | 142° |
| 2026-05-05 10:28 | 49.63525 | 9.39015 | 37022 ft | 476 kts | 142° |
| 2026-05-05 10:28 | 49.58875 | 9.46365 | 37023 ft | 481 kts | 135° |
| 2026-05-05 10:29 | 49.54515 | 9.54178 | 37015 ft | 481 kts | 135° |
| 2026-05-05 10:29 | 49.50131 | 9.61965 | 37042 ft | 482 kts | 135° |
| 2026-05-05 10:30 | 49.45711 | 9.69723 | 37019 ft | 483 kts | 135° |
| 2026-05-05 10:30 | 49.41280 | 9.77471 | 37025 ft | 483 kts | 135° |
| 2026-05-05 10:31 | 49.36834 | 9.85211 | 36999 ft | 483 kts | 136° |
| 2026-05-05 10:31 | 49.32355 | 9.92885 | 37008 ft | 483 kts | 136° |
| 2026-05-05 10:32 | 49.27853 | 10.00567 | 36530 ft | 490 kts | 136° |
| 2026-05-05 10:32 | 49.25562 | 10.04476 | 35775 ft | 493 kts | 136° |
| 2026-05-05 10:32 | 49.23273 | 10.08384 | 34888 ft | 493 kts | 136° |
| 2026-05-05 10:33 | 49.20964 | 10.12314 | 33996 ft | 504 kts | 136° |
| 2026-05-05 10:33 | 49.18609 | 10.16326 | 33056 ft | 504 kts | 136° |
| 2026-05-05 10:33 | 49.16355 | 10.20234 | 31930 ft | 480 kts | 135° |
| 2026-05-05 10:33 | 49.14218 | 10.23946 | 30864 ft | 460 kts | 135° |
| 2026-05-05 10:34 | 49.12101 | 10.27471 | 30214 ft | 443 kts | 137° |
| 2026-05-05 10:34 | 49.09967 | 10.30890 | 29490 ft | 444 kts | 137° |
| 2026-05-05 10:34 | 49.07802 | 10.34320 | 28817 ft | 457 kts | 137° |
| 2026-05-05 10:34 | 49.06318 | 10.36674 | 28365 ft | 469 kts | 137° |
| 2026-05-05 10:35 | 49.04051 | 10.40300 | 27633 ft | 472 kts | 137° |
| 2026-05-05 10:35 | 49.01779 | 10.43957 | 26944 ft | 467 kts | 136° |
| 2026-05-05 10:35 | 48.99546 | 10.47534 | 26260 ft | 462 kts | 137° |
| 2026-05-05 10:35 | 48.97346 | 10.50992 | 25604 ft | 457 kts | 137° |
| 2026-05-05 10:36 | 48.95139 | 10.54435 | 24953 ft | 453 kts | 137° |
| 2026-05-05 10:36 | 48.92959 | 10.57867 | 24299 ft | 449 kts | 136° |
| 2026-05-05 10:36 | 48.90809 | 10.61301 | 23651 ft | 446 kts | 136° |
| 2026-05-05 10:36 | 48.88684 | 10.64709 | 22917 ft | 443 kts | 136° |
| 2026-05-05 10:37 | 48.86570 | 10.68093 | 22230 ft | 439 kts | 136° |
| 2026-05-05 10:37 | 48.84475 | 10.71437 | 21601 ft | 434 kts | 136° |
| 2026-05-05 10:37 | 48.82402 | 10.74734 | 20971 ft | 430 kts | 136° |
| 2026-05-05 10:37 | 48.80339 | 10.78003 | 20354 ft | 426 kts | 137° |
| 2026-05-05 10:38 | 48.78291 | 10.81210 | 19747 ft | 422 kts | 137° |
| 2026-05-05 10:38 | 48.76248 | 10.84392 | 19165 ft | 419 kts | 137° |
| 2026-05-05 10:38 | 48.74228 | 10.87537 | 18570 ft | 416 kts | 137° |
| 2026-05-05 10:38 | 48.72216 | 10.90673 | 17902 ft | 413 kts | 137° |
| 2026-05-05 10:39 | 48.70222 | 10.93775 | 17258 ft | 409 kts | 137° |
| 2026-05-05 10:39 | 48.68249 | 10.96842 | 16650 ft | 405 kts | 137° |
| 2026-05-05 10:39 | 48.66291 | 10.99885 | 16051 ft | 401 kts | 137° |
| 2026-05-05 10:39 | 48.64356 | 11.02891 | 15466 ft | 397 kts | 137° |
| 2026-05-05 10:40 | 48.62434 | 11.05877 | 14892 ft | 393 kts | 137° |
| 2026-05-05 10:40 | 48.60558 | 11.08785 | 14331 ft | 390 kts | 137° |
| 2026-05-05 10:40 | 48.58658 | 11.11688 | 13740 ft | 386 kts | 139° |
| 2026-05-05 10:40 | 48.56630 | 11.14279 | 13287 ft | 376 kts | 147° |
| 2026-05-05 10:41 | 48.54561 | 11.16490 | 13159 ft | 352 kts | 142° |
| 2026-05-05 10:41 | 48.53068 | 11.19335 | 13015 ft | 344 kts | 119° |
| 2026-05-05 10:41 | 48.52357 | 11.22733 | 12776 ft | 341 kts | 102° |
| 2026-05-05 10:41 | 48.52215 | 11.26291 | 12467 ft | 342 kts | 87° |
| 2026-05-05 10:42 | 48.53169 | 11.33348 | 11860 ft | 345 kts | 78° |
| 2026-05-05 10:42 | 48.53717 | 11.36880 | 11541 ft | 347 kts | 78° |
| 2026-05-05 10:42 | 48.54255 | 11.40427 | 11223 ft | 346 kts | 79° |
| 2026-05-05 10:43 | 48.54778 | 11.43966 | 10928 ft | 344 kts | 79° |
| 2026-05-05 10:43 | 48.55283 | 11.47461 | 10603 ft | 338 kts | 79° |
| 2026-05-05 10:43 | 48.55773 | 11.50901 | 10307 ft | 332 kts | 79° |
| 2026-05-05 10:43 | 48.56250 | 11.54274 | 10014 ft | 326 kts | 79° |
| 2026-05-05 10:44 | 48.56675 | 11.57537 | 9836 ft | 305 kts | 86° |
| 2026-05-05 10:44 | 48.56470 | 11.60589 | 9460 ft | 285 kts | 111° |
| 2026-05-05 10:44 | 48.55615 | 11.63183 | 9164 ft | 271 kts | 124° |
| 2026-05-05 10:44 | 48.54602 | 11.65586 | 8906 ft | 272 kts | 125° |
| 2026-05-05 10:45 | 48.53653 | 11.68026 | 8643 ft | 275 kts | 117° |
| 2026-05-05 10:45 | 48.52880 | 11.70684 | 8380 ft | 279 kts | 115° |
| 2026-05-05 10:45 | 48.52135 | 11.73395 | 8074 ft | 279 kts | 114° |
| 2026-05-05 10:45 | 48.51412 | 11.76081 | 7763 ft | 274 kts | 114° |
| 2026-05-05 10:46 | 48.50702 | 11.78730 | 7464 ft | 270 kts | 114° |
| 2026-05-05 10:46 | 48.50007 | 11.81344 | 7196 ft | 267 kts | 114° |
| 2026-05-05 10:46 | 48.49316 | 11.83914 | 6915 ft | 263 kts | 114° |
| 2026-05-05 10:46 | 48.48630 | 11.86458 | 6610 ft | 259 kts | 113° |
| 2026-05-05 10:47 | 48.47959 | 11.88952 | 6332 ft | 256 kts | 114° |
| 2026-05-05 10:47 | 48.47291 | 11.91422 | 6016 ft | 253 kts | 113° |
| 2026-05-05 10:47 | 48.46619 | 11.93861 | 5741 ft | 251 kts | 114° |
| 2026-05-05 10:47 | 48.45942 | 11.96276 | 5436 ft | 249 kts | 113° |
| 2026-05-05 10:48 | 48.45255 | 11.98666 | 5133 ft | 248 kts | 113° |
| 2026-05-05 10:48 | 48.44573 | 12.00986 | 5030 ft | 234 kts | 113° |
| 2026-05-05 10:48 | 48.43912 | 12.03159 | 4964 ft | 225 kts | 114° |
| 2026-05-05 10:48 | 48.43249 | 12.05318 | 5017 ft | 229 kts | 114° |
| 2026-05-05 10:49 | 48.42584 | 12.07474 | 4988 ft | 225 kts | 114° |
| 2026-05-05 10:49 | 48.41939 | 12.09593 | 4977 ft | 220 kts | 113° |
| 2026-05-05 10:49 | 48.41307 | 12.11605 | 4996 ft | 213 kts | 115° |
| 2026-05-05 10:49 | 48.40650 | 12.13578 | 4963 ft | 207 kts | 120° |
| 2026-05-05 10:50 | 48.39646 | 12.15117 | 4962 ft | 205 kts | 147° |
| 2026-05-05 10:50 | 48.38309 | 12.15731 | 4956 ft | 204 kts | 176° |
| 2026-05-05 10:50 | 48.36940 | 12.15128 | 4976 ft | 212 kts | 212° |
| 2026-05-05 10:50 | 48.36071 | 12.13402 | 4964 ft | 209 kts | 251° |
| 2026-05-05 10:51 | 48.36039 | 12.11220 | 4984 ft | 212 kts | 279° |
| 2026-05-05 10:51 | 48.36255 | 12.09003 | 4983 ft | 219 kts | 274° |
| 2026-05-05 10:51 | 48.36268 | 12.06725 | 4982 ft | 218 kts | 269° |
| 2026-05-05 10:51 | 48.36239 | 12.04424 | 4939 ft | 219 kts | 268° |
| 2026-05-05 10:52 | 48.36166 | 12.02075 | 4514 ft | 231 kts | 266° |
| 2026-05-05 10:52 | 48.36026 | 11.99723 | 4114 ft | 220 kts | 264° |
| 2026-05-05 10:52 | 48.35850 | 11.97505 | 3792 ft | 209 kts | 262° |
| 2026-05-05 10:52 | 48.35656 | 11.95363 | 3373 ft | 207 kts | 263° |
| 2026-05-05 10:53 | 48.35470 | 11.93217 | 2984 ft | 205 kts | 263° |
| 2026-05-05 10:53 | 48.35301 | 11.91119 | 2757 ft | 208 kts | 263° |
| 2026-05-05 10:53 | 48.35136 | 11.89021 | 2416 ft | 193 kts | 264° |
| 2026-05-05 10:53 | 48.34999 | 11.87102 | 2432 ft | 186 kts | 263° |
| 2026-05-05 10:54 | 48.34834 | 11.85218 | 2262 ft | 174 kts | 264° |
| 2026-05-05 10:54 | 48.34716 | 11.83471 | 2068 ft | 164 kts | 264° |
| 2026-05-05 10:54 | 48.34581 | 11.81774 | 1726 ft | 161 kts | 262° |
| 2026-05-05 10:54 | 48.34458 | 11.80150 | 1526 ft | 153 kts | 262° |
| 2026-05-05 10:55 | 48.34344 | 11.78698 | 1488 ft | 114 kts | 263° |
| 2026-05-05 10:55 | 48.34279 | 11.77859 | 1490 ft | 48 kts | 264° |
| 2026-05-05 10:55 | 48.34247 | 11.77435 | 1484 ft | 36 kts | 267° |
| 2026-05-05 10:55 | 48.34303 | 11.77109 | 1483 ft | 29 kts | 292° |
| 2026-05-05 10:56 | 48.34363 | 11.76892 | 1477 ft | 4 kts | 292° |
| 2026-05-05 10:56 | 48.34365 | 11.76887 | 1481 ft | 1 kts | 292° |
| 2026-05-05 10:56 | 48.34369 | 11.76874 | 1486 ft | 2 kts | 295° |
| 2026-05-05 10:56 | 48.34377 | 11.76851 | 1481 ft | 3 kts | 297° |
| 2026-05-05 10:57 | 48.34388 | 11.76815 | 1478 ft | 4 kts | 295° |
| 2026-05-05 10:57 | 48.34403 | 11.76768 | 1479 ft | 6 kts | 295° |
| 2026-05-05 10:57 | 48.34449 | 11.76710 | 1478 ft | 12 kts | 342° |
| 2026-05-05 10:57 | 48.34557 | 11.76687 | 1478 ft | 19 kts | 352° |
| 2026-05-05 10:58 | 48.34681 | 11.76662 | 1488 ft | 11 kts | 352° |
| 2026-05-05 10:58 | 48.34724 | 11.76655 | 1488 ft | 6 kts | 356° |
| 2026-05-05 10:58 | 48.34765 | 11.76651 | 1478 ft | 6 kts | 353° |
| 2026-05-05 10:58 | 48.34810 | 11.76642 | 1478 ft | 7 kts | 353° |
| 2026-05-05 10:59 | 48.34832 | 11.76638 | 1486 ft | 1 kts | 351° |
| 2026-05-05 10:59 | 48.34840 | 11.76636 | 1476 ft | 1 kts | 352° |
| 2026-05-05 10:59 | 48.34842 | 11.76636 | 1476 ft | 1 kts | 352° |
| 2026-05-05 10:59 | 48.34843 | 11.76636 | 1477 ft | 0 kts | 352° |